Time;durP1;ratioP1;P1;durP2;ratioP2;P2;SDS_P1;SDS_P2;PMS_P1;PMS_P2;Temp;Humidity;BMP_temperature;BMP_pressure;BME280_temperature;BME280_humidity;BME280_pressure;Samples;Min_cycle;Max_cycle;Signal;HPM_P1;HPM_P2
2022/07/23 00:00:39;;;;;;;12.47;11.17;;;28.20;91.20;;;;;;5022636;28;20944;-69
2022/07/23 00:03:05;;;;;;;11.13;10.10;;;28.10;91.30;;;;;;5019292;28;20181;-69
2022/07/23 00:05:31;;;;;;;10.77;9.70;;;28.10;91.50;;;;;;5026609;28;20670;-69
2022/07/23 00:07:57;;;;;;;12.90;11.63;;;28.10;91.60;;;;;;5024846;28;20430;-69
2022/07/23 00:10:22;;;;;;;10.53;9.63;;;28.10;91.40;;;;;;5020834;28;20248;-69
2022/07/23 00:12:48;;;;;;;11.47;10.50;;;28.00;91.50;;;;;;5026417;28;20594;-69
2022/07/23 00:15:13;;;;;;;11.73;10.53;;;28.00;91.50;;;;;;5017725;28;20192;-68
2022/07/23 00:17:39;;;;;;;11.43;10.40;;;28.00;91.50;;;;;;5020933;28;20180;-69
2022/07/23 00:20:05;;;;;;;11.10;10.10;;;27.90;91.50;;;;;;5024525;28;20180;-68
2022/07/23 00:22:31;;;;;;;10.63;9.53;;;27.80;91.40;;;;;;5021573;28;20239;-68
2022/07/23 00:24:57;;;;;;;12.03;10.97;;;27.80;91.30;;;;;;5020169;28;20443;-68
2022/07/23 00:27:23;;;;;;;11.33;10.17;;;27.70;91.40;;;;;;5021305;28;20184;-68
2022/07/23 00:29:48;;;;;;;10.50;9.50;;;27.70;91.20;;;;;;5018672;28;20634;-68
2022/07/23 00:32:14;;;;;;;10.17;8.80;;;27.60;91.20;;;;;;5024991;28;20475;-68
2022/07/23 00:34:40;;;;;;;10.83;9.90;;;27.60;91.20;;;;;;5020223;28;20684;-68
2022/07/23 00:37:05;;;;;;;10.73;9.73;;;27.60;91.20;;;;;;5032023;28;20514;-68
2022/07/23 00:39:31;;;;;;;11.10;10.10;;;27.60;90.90;;;;;;5029773;28;20196;-67
2022/07/23 00:41:57;;;;;;;10.60;9.57;;;27.60;91.00;;;;;;5032162;28;20283;-68
2022/07/23 00:44:27;;;;;;;10.00;9.07;;;27.50;91.00;;;;;;5030819;28;20273;-68
2022/07/23 00:46:57;;;;;;;10.80;9.70;;;27.50;91.10;;;;;;5028414;28;20690;-70
2022/07/23 00:49:25;;;;;;;10.53;9.57;;;27.40;91.00;;;;;;5030711;28;21041;-69
2022/07/23 00:51:51;;;;;;;10.23;9.27;;;27.40;91.00;;;;;;5024845;28;20482;-69
2022/07/23 00:54:18;;;;;;;9.77;8.77;;;27.30;90.60;;;;;;5020753;28;20526;-70
2022/07/23 00:56:45;;;;;;;9.70;8.77;;;27.40;90.50;;;;;;5029360;28;20447;-70
2022/07/23 00:59:11;;;;;;;10.47;9.50;;;27.30;90.60;;;;;;5018439;28;20431;-69
2022/07/23 01:01:38;;;;;;;11.50;8.60;;;27.20;90.70;;;;;;5022237;28;20458;-68
2022/07/23 01:04:03;;;;;;;9.87;9.00;;;27.30;90.50;;;;;;5018013;28;20184;-69
2022/07/23 01:06:30;;;;;;;9.33;8.53;;;27.20;90.30;;;;;;5020080;28;20453;-68
2022/07/23 01:08:55;;;;;;;8.40;7.60;;;27.20;90.60;;;;;;5015096;28;20254;-68
2022/07/23 01:11:23;;;;;;;9.17;8.37;;;27.10;90.50;;;;;;5019675;28;20597;-68
2022/07/23 01:13:48;;;;;;;9.40;8.57;;;27.10;90.60;;;;;;5016576;28;20311;-68
2022/07/23 01:16:14;;;;;;;9.77;8.87;;;27.10;90.50;;;;;;5016731;28;20961;-67
2022/07/23 01:18:40;;;;;;;8.97;8.17;;;27.10;90.40;;;;;;5015228;28;20728;-68
2022/07/23 01:21:05;;;;;;;8.73;7.93;;;26.90;90.50;;;;;;5014327;28;20212;-68
2022/07/23 01:23:31;;;;;;;9.40;8.60;;;26.90;90.70;;;;;;5017518;28;20219;-68
2022/07/23 01:25:56;;;;;;;8.63;7.93;;;27.10;90.50;;;;;;5012064;28;20263;-68
2022/07/23 01:28:22;;;;;;;12.03;8.07;;;27.20;90.80;;;;;;5016810;28;20387;-68
2022/07/23 01:30:48;;;;;;;8.73;7.93;;;27.10;90.50;;;;;;5012685;28;20586;-68
2022/07/23 01:33:14;;;;;;;9.20;8.27;;;27.00;90.60;;;;;;5022703;28;20195;-68
2022/07/23 01:35:40;;;;;;;9.33;8.17;;;26.90;90.70;;;;;;5014957;28;20180;-68
2022/07/23 01:38:05;;;;;;;8.93;8.03;;;26.90;90.80;;;;;;5016678;28;20787;-68
2022/07/23 01:40:31;;;;;;;10.50;8.40;;;26.80;90.90;;;;;;5016466;28;20212;-68
2022/07/23 01:42:57;;;;;;;13.00;8.80;;;26.80;90.60;;;;;;5016383;28;20176;-68
2022/07/23 01:45:23;;;;;;;8.23;7.53;;;26.80;90.60;;;;;;5014069;28;20545;-69
2022/07/23 01:47:49;;;;;;;10.10;8.57;;;26.80;90.40;;;;;;5012908;28;20177;-68
2022/07/23 01:50:14;;;;;;;9.13;8.20;;;26.80;90.50;;;;;;5012466;28;20184;-68
2022/07/23 01:52:40;;;;;;;9.83;8.80;;;26.70;90.40;;;;;;5018252;28;20503;-68
2022/07/23 01:55:08;;;;;;;8.30;7.47;;;26.60;90.40;;;;;;5015575;28;20569;-68
2022/07/23 01:57:33;;;;;;;8.60;7.90;;;26.50;90.40;;;;;;5015132;28;21097;-68
2022/07/23 01:59:59;;;;;;;9.23;8.33;;;26.50;90.30;;;;;;5013918;28;20442;-68
2022/07/23 02:02:24;;;;;;;8.80;8.10;;;26.50;90.60;;;;;;5016564;28;20201;-68
2022/07/23 02:04:50;;;;;;;9.00;7.30;;;26.50;90.00;;;;;;5015459;28;20176;-69
2022/07/23 02:07:16;;;;;;;8.10;7.40;;;26.50;90.00;;;;;;5017697;28;20211;-68
2022/07/23 02:09:42;;;;;;;8.23;6.90;;;26.50;89.60;;;;;;5017454;28;20272;-67
2022/07/23 02:12:07;;;;;;;8.23;7.13;;;26.40;89.40;;;;;;5017714;28;20771;-67
2022/07/23 02:14:33;;;;;;;8.40;7.60;;;26.40;89.10;;;;;;5013302;28;20726;-67
2022/07/23 02:16:59;;;;;;;7.90;7.20;;;26.40;89.00;;;;;;5018295;28;20648;-67
2022/07/23 02:19:25;;;;;;;9.50;8.10;;;26.40;89.00;;;;;;5014885;28;20556;-68
2022/07/23 02:21:51;;;;;;;7.93;7.17;;;26.40;89.20;;;;;;5016170;28;21831;-68
2022/07/23 02:24:17;;;;;;;9.60;8.40;;;26.40;89.30;;;;;;5015481;28;20435;-68
2022/07/23 02:26:43;;;;;;;8.03;7.33;;;26.40;89.30;;;;;;5012587;28;20191;-69
2022/07/23 02:29:09;;;;;;;8.67;7.77;;;26.30;89.70;;;;;;5011175;28;20189;-68
2022/07/23 02:31:34;;;;;;;8.87;7.97;;;26.30;90.00;;;;;;5018065;28;20902;-68
2022/07/23 02:34:00;;;;;;;8.10;7.40;;;26.30;90.10;;;;;;5018579;28;20528;-68
2022/07/23 02:36:26;;;;;;;8.17;7.30;;;26.30;89.40;;;;;;5014113;28;20183;-69
2022/07/23 02:38:52;;;;;;;7.77;7.17;;;26.20;89.70;;;;;;5014562;28;21177;-68
2022/07/23 02:41:17;;;;;;;8.00;7.30;;;26.20;88.80;;;;;;5016647;28;20695;-68
2022/07/23 02:43:43;;;;;;;8.47;7.57;;;26.10;88.80;;;;;;5017718;28;20196;-68
2022/07/23 02:46:09;;;;;;;7.30;6.60;;;26.00;88.90;;;;;;5020432;28;20766;-69
2022/07/23 02:48:34;;;;;;;8.97;8.20;;;26.00;88.80;;;;;;5014719;28;20189;-69
2022/07/23 02:51:00;;;;;;;8.80;6.97;;;26.00;89.00;;;;;;5017309;28;20238;-68
2022/07/23 02:53:26;;;;;;;7.97;7.17;;;25.90;89.40;;;;;;5015203;28;20238;-69
2022/07/23 02:55:51;;;;;;;6.70;6.20;;;25.90;89.00;;;;;;5019119;28;20184;-69
2022/07/23 02:58:17;;;;;;;7.10;6.50;;;25.90;88.90;;;;;;5011934;28;20254;-68
2022/07/23 03:00:43;;;;;;;9.03;7.20;;;25.80;89.10;;;;;;5014882;28;21713;-68
2022/07/23 03:03:09;;;;;;;7.63;6.90;;;25.80;89.50;;;;;;5012116;28;20263;-66
2022/07/23 03:05:34;;;;;;;9.23;7.07;;;25.70;89.00;;;;;;5023485;28;20184;-68
2022/07/23 03:08:00;;;;;;;7.57;6.87;;;25.70;89.60;;;;;;5014216;28;20189;-68
2022/07/23 03:10:26;;;;;;;8.30;7.60;;;25.80;89.40;;;;;;5013893;28;21503;-67
2022/07/23 03:12:51;;;;;;;8.83;6.13;;;25.80;89.00;;;;;;5016323;28;20176;-70
2022/07/23 03:15:17;;;;;;;7.20;6.50;;;25.80;88.70;;;;;;5016013;28;20435;-68
2022/07/23 03:17:43;;;;;;;8.13;7.33;;;25.60;89.10;;;;;;5011700;28;20184;-67
2022/07/23 03:20:09;;;;;;;7.20;6.60;;;25.60;89.50;;;;;;5012589;28;20647;-67
2022/07/23 03:22:34;;;;;;;8.37;6.53;;;25.60;89.50;;;;;;5014223;28;20222;-67
2022/07/23 03:25:00;;;;;;;7.10;6.50;;;25.60;89.60;;;;;;5016470;28;20442;-68
2022/07/23 03:27:28;;;;;;;7.43;6.60;;;25.60;89.40;;;;;;5012556;28;20239;-67
2022/07/23 03:29:56;;;;;;;7.57;6.97;;;25.60;89.40;;;;;;5010966;28;21000;-68
2022/07/23 03:32:22;;;;;;;7.40;6.80;;;25.50;89.80;;;;;;5014556;28;20564;-67
2022/07/23 03:34:48;;;;;;;7.30;6.60;;;25.50;89.90;;;;;;5015203;28;20430;-67
2022/07/23 03:37:14;;;;;;;7.03;6.43;;;25.50;90.00;;;;;;5017025;28;23095;-68
2022/07/23 03:39:40;;;;;;;7.33;6.63;;;25.50;90.00;;;;;;5020392;28;22932;-69
2022/07/23 03:42:06;;;;;;;7.80;7.07;;;25.40;90.00;;;;;;5019265;28;20567;-69
2022/07/23 03:44:32;;;;;;;7.03;6.47;;;25.30;90.30;;;;;;5014229;28;20439;-68
2022/07/23 03:46:57;;;;;;;7.77;6.97;;;25.30;90.40;;;;;;5014400;28;20804;-69
2022/07/23 03:49:23;;;;;;;7.10;6.50;;;25.30;90.40;;;;;;5018837;28;20635;-68
2022/07/23 03:51:49;;;;;;;10.23;7.43;;;25.20;90.60;;;;;;5015414;28;20210;-68
2022/07/23 03:54:14;;;;;;;7.90;7.10;;;25.20;90.60;;;;;;5010133;28;20200;-68
2022/07/23 03:56:40;;;;;;;7.03;6.30;;;25.30;90.40;;;;;;5014991;28;20249;-68
2022/07/23 03:59:06;;;;;;;7.50;6.77;;;25.30;90.40;;;;;;5008928;28;20180;-68
2022/07/23 04:01:31;;;;;;;7.77;7.13;;;25.30;90.40;;;;;;5012059;28;20467;-68
2022/07/23 04:03:57;;;;;;;8.10;7.40;;;25.30;90.40;;;;;;5010767;28;20188;-68
2022/07/23 04:06:23;;;;;;;7.17;6.47;;;25.20;90.70;;;;;;5015354;28;20210;-68
2022/07/23 04:08:48;;;;;;;7.97;7.27;;;25.00;90.90;;;;;;5017117;28;20298;-68
2022/07/23 04:11:14;;;;;;;7.93;7.07;;;25.00;91.10;;;;;;5012323;28;20253;-68
2022/07/23 04:13:40;;;;;;;7.80;7.00;;;25.00;91.50;;;;;;5012628;28;20211;-68
2022/07/23 04:16:06;;;;;;;8.90;6.97;;;25.00;91.50;;;;;;5012182;28;20180;-68
2022/07/23 04:18:31;;;;;;;7.80;7.10;;;24.90;91.50;;;;;;5014107;28;20181;-68
2022/07/23 04:20:57;;;;;;;9.00;6.97;;;24.90;91.50;;;;;;5011009;28;21174;-68
2022/07/23 04:23:23;;;;;;;7.60;6.70;;;25.00;91.60;;;;;;5011268;28;20567;-68
2022/07/23 04:25:49;;;;;;;7.90;7.20;;;25.00;91.60;;;;;;5018258;28;20185;-67
2022/07/23 04:28:14;;;;;;;8.33;7.53;;;24.90;91.50;;;;;;5015522;28;20654;-69
2022/07/23 04:30:40;;;;;;;8.50;7.70;;;24.90;92.10;;;;;;5012805;28;20212;-69
2022/07/23 04:33:06;;;;;;;8.20;7.40;;;24.90;92.50;;;;;;5016390;28;20180;-69
2022/07/23 04:35:33;;;;;;;7.90;7.10;;;24.80;92.50;;;;;;5016422;28;20365;-69
2022/07/23 04:37:59;;;;;;;8.53;6.80;;;24.80;92.60;;;;;;5015986;28;20445;-69
2022/07/23 04:40:25;;;;;;;9.57;7.33;;;24.70;92.90;;;;;;5015054;28;21011;-67
2022/07/23 04:42:51;;;;;;;7.13;6.17;;;24.90;92.70;;;;;;5014589;28;20180;-67
2022/07/23 04:45:16;;;;;;;7.70;7.00;;;25.00;92.90;;;;;;5011733;28;20540;-68
2022/07/23 04:47:42;;;;;;;8.17;7.30;;;24.90;93.10;;;;;;5011907;28;20185;-68
2022/07/23 04:50:07;;;;;;;7.23;6.50;;;24.70;93.40;;;;;;5010530;28;20361;-68
2022/07/23 04:52:33;;;;;;;8.80;7.90;;;24.80;93.60;;;;;;5012281;28;21801;-69
2022/07/23 04:54:59;;;;;;;7.90;7.10;;;24.90;93.80;;;;;;5012026;28;20703;-69
2022/07/23 04:57:24;;;;;;;7.10;6.43;;;24.90;93.70;;;;;;5017656;28;20185;-68
2022/07/23 04:59:50;;;;;;;7.63;6.93;;;25.00;93.60;;;;;;5016546;28;20436;-69
2022/07/23 05:02:15;;;;;;;8.40;7.60;;;25.00;93.70;;;;;;5012695;28;20215;-66
2022/07/23 05:04:41;;;;;;;8.17;7.37;;;25.00;93.90;;;;;;5021699;28;20639;-67
2022/07/23 05:07:06;;;;;;;7.70;7.00;;;24.80;94.20;;;;;;5019262;28;20185;-67
2022/07/23 05:09:32;;;;;;;9.30;7.70;;;24.70;94.40;;;;;;5017165;28;20196;-67
2022/07/23 05:11:58;;;;;;;10.23;7.70;;;24.80;94.50;;;;;;5013614;28;20338;-69
2022/07/23 05:14:23;;;;;;;8.17;7.50;;;24.60;94.80;;;;;;5014734;28;20692;-68
2022/07/23 05:16:49;;;;;;;7.80;7.10;;;24.60;95.10;;;;;;5008821;28;20254;-67
2022/07/23 05:19:14;;;;;;;8.03;7.30;;;24.70;95.10;;;;;;5013316;28;20177;-68
2022/07/23 05:21:40;;;;;;;7.83;7.03;;;24.70;95.20;;;;;;5010498;28;20212;-67
2022/07/23 05:24:06;;;;;;;8.23;7.53;;;24.70;95.30;;;;;;5014349;28;20184;-67
2022/07/23 05:26:32;;;;;;;7.43;6.83;;;24.70;95.50;;;;;;5011799;28;20817;-67
2022/07/23 05:28:57;;;;;;;7.53;6.90;;;24.90;95.50;;;;;;5013521;28;20534;-69
2022/07/23 05:31:23;;;;;;;7.23;6.63;;;24.90;95.50;;;;;;5011157;28;20726;-69
2022/07/23 05:33:48;;;;;;;7.60;6.97;;;25.00;95.40;;;;;;5014172;28;20184;-69
2022/07/23 05:36:14;;;;;;;9.60;8.03;;;25.00;95.30;;;;;;5014661;28;20322;-69
2022/07/23 05:38:39;;;;;;;8.43;7.63;;;25.00;95.10;;;;;;5017810;28;20180;-69
2022/07/23 05:41:05;;;;;;;8.50;7.70;;;25.10;95.40;;;;;;5014966;28;20242;-68
2022/07/23 05:43:31;;;;;;;7.33;6.70;;;25.20;95.10;;;;;;5014836;28;20184;-68
2022/07/23 05:45:56;;;;;;;7.73;7.13;;;25.30;94.80;;;;;;5014231;28;20184;-68
2022/07/23 05:48:22;;;;;;;7.80;7.10;;;25.30;94.50;;;;;;5015467;28;20199;-69
2022/07/23 05:50:48;;;;;;;9.43;7.93;;;25.30;94.30;;;;;;5016763;28;20584;-68
2022/07/23 05:53:13;;;;;;;7.80;6.73;;;25.30;94.10;;;;;;5014750;28;20803;-68
2022/07/23 05:55:39;;;;;;;7.67;6.97;;;25.30;94.40;;;;;;5010239;28;20262;-68
2022/07/23 05:58:04;;;;;;;8.10;7.33;;;25.30;94.90;;;;;;5009078;28;20206;-68
2022/07/23 06:00:30;;;;;;;14.40;8.90;;;25.30;95.00;;;;;;5013427;28;20227;-68
2022/07/23 06:02:56;;;;;;;8.80;7.93;;;25.20;95.60;;;;;;5014468;28;20185;-68
2022/07/23 06:05:22;;;;;;;9.10;7.60;;;25.20;95.70;;;;;;5032061;28;20442;-68
2022/07/23 06:07:48;;;;;;;8.03;7.20;;;25.30;95.80;;;;;;5014620;28;20196;-68
2022/07/23 06:10:13;;;;;;;9.60;8.70;;;25.30;95.70;;;;;;5016136;28;20537;-69
2022/07/23 06:12:39;;;;;;;8.57;7.77;;;25.40;95.30;;;;;;5014342;28;20280;-68
2022/07/23 06:15:05;;;;;;;9.03;7.63;;;25.50;95.10;;;;;;5015317;28;20376;-68
2022/07/23 06:17:31;;;;;;;9.37;7.83;;;25.50;95.00;;;;;;5011558;28;20204;-69
2022/07/23 06:19:56;;;;;;;8.53;7.80;;;25.40;95.30;;;;;;5012189;28;20431;-69
2022/07/23 06:22:22;;;;;;;10.30;9.17;;;25.20;96.60;;;;;;5012152;28;20273;-69
2022/07/23 06:24:49;;;;;;;8.63;7.83;;;25.20;97.20;;;;;;5013405;28;20192;-69
2022/07/23 06:27:14;;;;;;;8.83;8.03;;;25.10;97.90;;;;;;5014988;28;20944;-69
2022/07/23 06:29:40;;;;;;;9.53;7.07;;;25.00;98.20;;;;;;5014456;28;20651;-69
2022/07/23 06:32:06;;;;;;;11.50;8.20;;;25.10;98.60;;;;;;5008779;28;20744;-69
2022/07/23 06:34:32;;;;;;;9.47;8.47;;;25.10;98.30;;;;;;5012648;28;20217;-67
2022/07/23 06:36:58;;;;;;;10.37;8.10;;;25.10;98.70;;;;;;5019029;28;20798;-68
2022/07/23 06:39:23;;;;;;;9.80;8.20;;;25.10;99.10;;;;;;5014198;28;20563;-69
2022/07/23 06:41:49;;;;;;;11.50;8.40;;;25.10;99.90;;;;;;5014470;28;20201;-69
2022/07/23 06:44:15;;;;;;;13.67;8.40;;;25.20;99.90;;;;;;5012476;28;20597;-70
2022/07/23 06:46:40;;;;;;;8.93;8.00;;;25.20;99.90;;;;;;5015229;28;20352;-69
2022/07/23 06:49:06;;;;;;;9.00;8.20;;;25.00;99.90;;;;;;5010306;28;20267;-68
2022/07/23 06:51:32;;;;;;;9.10;7.97;;;25.00;99.90;;;;;;5016139;28;20207;-69
2022/07/23 06:53:58;;;;;;;9.50;8.50;;;25.10;99.90;;;;;;5011654;28;20792;-68
2022/07/23 06:56:24;;;;;;;8.47;7.60;;;25.20;99.90;;;;;;5012084;28;20640;-67
2022/07/23 06:58:49;;;;;;;9.30;8.40;;;25.20;99.90;;;;;;5010515;28;20534;-67
2022/07/23 07:01:15;;;;;;;10.20;9.30;;;25.30;99.90;;;;;;5015015;28;20230;-67
2022/07/23 07:03:40;;;;;;;9.80;9.00;;;25.20;99.90;;;;;;5015114;28;20189;-68
2022/07/23 07:06:06;;;;;;;8.90;8.10;;;25.20;99.90;;;;;;5017939;28;20196;-68
2022/07/23 07:08:31;;;;;;;9.53;8.23;;;25.00;99.90;;;;;;5015046;28;20208;-68
2022/07/23 07:10:57;;;;;;;11.43;8.50;;;24.90;99.90;;;;;;5016908;28;20387;-68
2022/07/23 07:13:23;;;;;;;10.00;8.60;;;24.90;99.90;;;;;;5012197;28;21115;-67
2022/07/23 07:15:48;;;;;;;7.63;6.93;;;24.90;99.90;;;;;;5015852;28;20809;-66
2022/07/23 07:18:14;;;;;;;8.33;7.63;;;25.00;99.90;;;;;;5014714;28;20341;-67
2022/07/23 07:20:39;;;;;;;8.40;7.60;;;25.10;99.90;;;;;;5016063;28;20258;-68
2022/07/23 07:23:05;;;;;;;8.40;7.53;;;25.20;99.90;;;;;;5017170;28;20255;-68
2022/07/23 07:25:30;;;;;;;9.23;8.40;;;25.20;99.90;;;;;;5014275;28;20556;-69
2022/07/23 07:27:56;;;;;;;9.40;8.50;;;25.20;99.90;;;;;;5014286;28;20239;-67
2022/07/23 07:30:22;;;;;;;9.30;8.50;;;25.20;99.90;;;;;;5011780;28;20188;-68
2022/07/23 07:32:48;;;;;;;9.20;8.30;;;25.20;99.90;;;;;;5018724;28;20192;-68
2022/07/23 07:35:13;;;;;;;11.50;8.53;;;25.10;99.90;;;;;;5016029;28;20183;-69
2022/07/23 07:37:39;;;;;;;9.63;8.73;;;25.10;99.90;;;;;;5011199;28;20187;-71
2022/07/23 07:40:05;;;;;;;9.70;8.80;;;25.10;99.90;;;;;;5015937;28;20220;-70
2022/07/23 07:42:32;;;;;;;9.80;8.70;;;25.00;99.90;;;;;;5016235;28;20873;-70
2022/07/23 07:44:57;;;;;;;9.63;8.60;;;25.10;99.90;;;;;;5008582;28;20829;-71
2022/07/23 07:47:23;;;;;;;9.13;8.23;;;25.20;99.90;;;;;;5019993;28;20442;-71
2022/07/23 07:49:48;;;;;;;10.97;8.57;;;25.10;99.90;;;;;;5011041;28;20254;-70
2022/07/23 07:52:14;;;;;;;9.17;8.37;;;25.10;99.90;;;;;;5018139;28;20204;-70
2022/07/23 07:54:40;;;;;;;10.30;9.17;;;25.20;99.90;;;;;;5012763;28;20183;-70
2022/07/23 07:57:05;;;;;;;9.20;8.30;;;25.30;99.90;;;;;;5015086;28;20240;-76
2022/07/23 07:59:31;;;;;;;8.63;7.83;;;25.30;99.90;;;;;;5014383;28;20188;-73
2022/07/23 08:01:56;;;;;;;9.37;8.47;;;25.30;99.90;;;;;;5017311;28;20269;-73
2022/07/23 08:04:22;;;;;;;9.90;8.90;;;25.40;99.90;;;;;;5015291;28;20195;-74
2022/07/23 08:06:47;;;;;;;12.10;9.20;;;25.30;99.90;;;;;;5011488;28;20187;-73
2022/07/23 08:09:13;;;;;;;11.30;9.00;;;25.30;99.90;;;;;;5017682;28;20192;-73
2022/07/23 08:11:38;;;;;;;10.00;9.00;;;25.50;99.90;;;;;;5020471;28;20563;-72
2022/07/23 08:14:04;;;;;;;10.07;9.20;;;25.60;99.90;;;;;;5019827;28;20180;-73
2022/07/23 08:16:30;;;;;;;9.60;8.70;;;25.60;99.90;;;;;;5021326;28;20179;-72
2022/07/23 08:18:55;;;;;;;9.73;8.73;;;25.50;99.90;;;;;;5021543;28;20176;-73
2022/07/23 08:21:21;;;;;;;10.60;9.47;;;25.50;99.90;;;;;;5022823;28;20712;-73
2022/07/23 08:23:46;;;;;;;10.17;9.27;;;25.60;99.90;;;;;;5023002;28;20181;-74
2022/07/23 08:26:12;;;;;;;10.30;9.23;;;25.60;99.90;;;;;;5025494;28;20247;-74
2022/07/23 08:28:38;;;;;;;9.37;8.57;;;25.60;99.90;;;;;;5023683;28;20720;-73
2022/07/23 08:31:05;;;;;;;9.80;8.90;;;25.80;99.90;;;;;;5021877;28;20290;-74
2022/07/23 08:33:31;;;;;;;10.50;9.13;;;25.80;99.90;;;;;;5020369;28;20173;-73
2022/07/23 08:35:57;;;;;;;9.27;8.47;;;25.90;99.90;;;;;;5026043;28;20604;-73
2022/07/23 08:38:23;;;;;;;10.03;9.13;;;25.80;99.90;;;;;;5027756;28;20615;-73
2022/07/23 08:40:52;;;;;;;10.30;9.40;;;25.90;99.90;;;;;;5024980;28;20446;-73
2022/07/23 08:43:23;;;;;;;9.90;8.40;;;26.00;99.90;;;;;;5021146;28;20176;-71
2022/07/23 08:45:51;;;;;;;10.60;9.50;;;26.00;99.90;;;;;;5022921;28;20431;-73
2022/07/23 08:48:22;;;;;;;10.40;9.03;;;25.90;99.90;;;;;;5024839;28;21642;-73
2022/07/23 08:50:54;;;;;;;9.80;8.90;;;25.90;99.90;;;;;;5014556;28;21054;-73
2022/07/23 08:53:21;;;;;;;11.10;8.93;;;26.00;99.90;;;;;;5020965;28;20515;-73
2022/07/23 08:55:51;;;;;;;11.40;10.23;;;26.10;99.90;;;;;;5024757;28;20818;-72
2022/07/23 08:58:17;;;;;;;10.03;9.13;;;26.00;99.90;;;;;;5019795;28;20426;-70
2022/07/23 09:00:44;;;;;;;11.17;10.13;;;25.90;99.90;;;;;;5014203;28;20455;-70
2022/07/23 09:03:21;;;;;;;10.30;9.30;;;26.00;99.90;;;;;;5025223;28;20438;-70
2022/07/23 09:05:50;;;;;;;9.90;8.83;;;26.10;99.90;;;;;;5019870;28;20882;-68
2022/07/23 09:08:18;;;;;;;8.90;8.10;;;26.20;99.90;;;;;;5023592;28;20433;-69
2022/07/23 09:10:48;;;;;;;9.50;8.70;;;26.30;99.90;;;;;;5018035;28;21119;-69
2022/07/23 09:13:27;;;;;;;9.53;8.67;;;26.30;99.90;;;;;;5024037;28;20434;-70
2022/07/23 09:15:55;;;;;;;10.67;9.13;;;26.50;99.90;;;;;;5022884;28;20478;-69
2022/07/23 09:18:38;;;;;;;9.57;8.70;;;26.50;99.90;;;;;;5019221;28;20514;-68
2022/07/23 09:21:31;;;;;;;8.73;7.93;;;26.60;99.90;;;;;;5021195;28;20466;-70
2022/07/23 09:24:16;;;;;;;10.17;9.27;;;26.70;99.90;;;;;;5021684;28;20535;-69
2022/07/23 09:26:44;;;;;;;10.03;8.97;;;26.70;99.90;;;;;;5017981;28;20546;-71
2022/07/23 09:29:15;;;;;;;9.90;9.00;;;26.70;99.90;;;;;;5020659;28;20445;-70
2022/07/23 09:31:47;;;;;;;9.73;8.83;;;26.70;99.90;;;;;;5020823;28;21700;-70
2022/07/23 09:34:17;;;;;;;9.60;8.80;;;26.80;99.90;;;;;;5022824;28;20414;-69
2022/07/23 09:36:43;;;;;;;10.27;9.20;;;26.70;99.90;;;;;;5021149;28;20438;-70
2022/07/23 09:39:10;;;;;;;10.00;9.10;;;26.80;99.90;;;;;;5019389;28;20434;-70
2022/07/23 09:41:43;;;;;;;9.30;8.40;;;26.80;99.90;;;;;;5021476;28;20804;-70
2022/07/23 09:44:17;;;;;;;10.67;9.77;;;26.80;99.90;;;;;;5020957;28;20466;-71
2022/07/23 09:46:48;;;;;;;9.23;8.33;;;26.90;99.90;;;;;;5021999;28;20802;-71
2022/07/23 09:49:22;;;;;;;9.17;8.20;;;27.00;99.90;;;;;;5017683;28;20489;-70
2022/07/23 09:52:00;;;;;;;11.10;9.90;;;27.10;99.90;;;;;;5018678;28;20473;-70
2022/07/23 09:54:32;;;;;;;9.13;8.23;;;27.20;99.90;;;;;;5021938;28;20851;-70
2022/07/23 09:57:00;;;;;;;8.50;7.80;;;27.30;99.50;;;;;;5017735;28;21201;-71
2022/07/23 09:59:28;;;;;;;8.47;7.70;;;27.30;98.00;;;;;;5017842;28;20443;-71
2022/07/23 10:01:56;;;;;;;9.17;8.27;;;27.40;97.30;;;;;;5017622;28;20470;-71
2022/07/23 10:04:24;;;;;;;8.90;8.20;;;27.40;97.10;;;;;;5020171;28;20442;-68
2022/07/23 10:06:55;;;;;;;11.93;10.40;;;27.30;97.20;;;;;;5020907;28;21181;-71
2022/07/23 10:09:33;;;;;;;9.70;8.90;;;27.40;98.10;;;;;;5018116;28;20471;-68
2022/07/23 10:12:06;;;;;;;9.77;8.77;;;27.50;98.10;;;;;;5016700;28;20463;-68
2022/07/23 10:14:33;;;;;;;9.93;8.77;;;27.70;97.80;;;;;;5021584;28;20431;-69
2022/07/23 10:17:01;;;;;;;8.73;7.93;;;27.80;97.50;;;;;;5016959;28;20436;-71
2022/07/23 10:19:27;;;;;;;12.23;8.60;;;27.80;96.70;;;;;;5023308;28;20904;-71
2022/07/23 10:22:04;;;;;;;9.90;8.90;;;27.80;95.90;;;;;;5024098;28;20750;-70
2022/07/23 10:24:55;;;;;;;9.33;8.43;;;27.90;95.40;;;;;;5017899;28;20327;-70
2022/07/23 10:27:39;;;;;;;10.20;9.33;;;27.90;95.30;;;;;;5021324;28;20983;-70
2022/07/23 10:30:09;;;;;;;9.50;8.70;;;27.90;95.70;;;;;;5019217;28;20439;-70
2022/07/23 10:32:47;;;;;;;9.57;8.73;;;27.90;95.80;;;;;;5022915;28;20462;-70
2022/07/23 10:35:28;;;;;;;10.73;9.63;;;28.00;96.10;;;;;;5021319;28;20462;-71
2022/07/23 10:38:12;;;;;;;10.53;9.67;;;28.10;96.10;;;;;;5020376;28;20427;-70
2022/07/23 10:41:03;;;;;;;10.07;9.27;;;28.20;96.20;;;;;;5023968;28;20435;-69
2022/07/23 10:43:30;;;;;;;9.83;8.93;;;28.30;95.60;;;;;;5022105;28;20427;-70
2022/07/23 10:46:16;;;;;;;11.20;10.10;;;28.30;95.50;;;;;;5021426;28;20488;-68
2022/07/23 10:48:42;;;;;;;9.83;8.93;;;28.40;95.60;;;;;;5022903;28;20442;-68
2022/07/23 10:51:09;;;;;;;9.57;8.77;;;28.30;94.80;;;;;;5026254;28;20463;-68
2022/07/23 10:53:58;;;;;;;10.13;9.03;;;28.40;94.60;;;;;;5019482;28;20654;-69
2022/07/23 10:56:55;;;;;;;11.63;8.23;;;28.50;93.20;;;;;;5009646;28;20999;-69
2022/07/23 10:59:21;;;;;;;9.10;8.30;;;28.50;93.60;;;;;;5019096;28;20423;-69
2022/07/23 11:01:47;;;;;;;8.70;8.00;;;28.60;93.20;;;;;;5019014;28;20873;-69
2022/07/23 11:04:13;;;;;;;9.23;8.40;;;28.60;93.50;;;;;;5022867;28;20195;-69
2022/07/23 11:06:50;;;;;;;8.40;7.70;;;28.80;93.60;;;;;;5024605;28;20184;-69
2022/07/23 11:09:28;;;;;;;9.00;8.20;;;28.80;93.60;;;;;;5022635;28;20191;-69
2022/07/23 11:12:29;;;;;;;9.20;8.30;;;28.90;92.50;;;;;;5021884;28;20466;-69
2022/07/23 11:15:11;;;;;;;8.80;8.07;;;28.90;92.40;;;;;;4990819;28;20427;-69
2022/07/23 11:17:59;;;;;;;8.50;7.60;;;28.90;91.20;;;;;;5022875;28;20481;-69
2022/07/23 11:20:25;;;;;;;8.00;7.33;;;29.00;91.10;;;;;;5020474;28;20415;-69
2022/07/23 11:22:57;;;;;;;9.80;8.80;;;29.00;91.10;;;;;;5021243;28;20551;-69
2022/07/23 11:25:29;;;;;;;9.03;8.33;;;29.20;91.80;;;;;;5016758;28;20441;-69
2022/07/23 11:27:55;;;;;;;9.00;8.20;;;29.30;91.40;;;;;;5017801;28;20466;-69
2022/07/23 11:30:27;;;;;;;8.97;8.17;;;29.40;91.10;;;;;;5020950;28;20439;-70
2022/07/23 11:33:14;;;;;;;9.73;8.83;;;29.40;91.10;;;;;;5017758;28;20501;-69
2022/07/23 11:35:41;;;;;;;8.97;8.17;;;29.60;91.20;;;;;;5024183;28;20867;-70
2022/07/23 11:38:29;;;;;;;10.03;9.20;;;29.70;90.90;;;;;;5023668;28;20427;-70
2022/07/23 11:40:58;;;;;;;9.27;8.40;;;29.80;90.70;;;;;;5023468;28;20444;-70
2022/07/23 11:43:23;;;;;;;9.90;9.00;;;29.90;91.00;;;;;;5023887;28;21032;-70
2022/07/23 11:45:52;;;;;;;9.47;8.57;;;29.90;90.60;;;;;;5019862;28;20423;-70
2022/07/23 11:48:19;;;;;;;11.93;10.07;;;30.10;90.20;;;;;;5024825;28;20331;-70
2022/07/23 11:50:45;;;;;;;9.90;9.00;;;30.00;90.40;;;;;;5020349;28;20453;-70
2022/07/23 11:53:10;;;;;;;10.63;9.73;;;30.10;90.30;;;;;;5020760;28;20462;-69
2022/07/23 11:55:36;;;;;;;8.60;7.80;;;30.20;90.00;;;;;;5020473;28;20176;-69
2022/07/23 11:58:02;;;;;;;9.40;8.50;;;30.30;89.80;;;;;;5024232;28;20654;-69
2022/07/23 12:00:29;;;;;;;10.00;9.00;;;30.30;89.20;;;;;;5020372;28;20207;-70
2022/07/23 12:03:01;;;;;;;9.50;8.60;;;30.40;89.00;;;;;;5017685;28;20184;-69
2022/07/23 12:05:37;;;;;;;9.80;9.00;;;30.50;89.60;;;;;;5022271;28;20424;-69
2022/07/23 12:08:06;;;;;;;9.80;8.90;;;30.70;87.80;;;;;;5021596;28;20521;-69
2022/07/23 12:10:38;;;;;;;9.30;8.50;;;30.70;87.60;;;;;;5022746;28;20514;-69
2022/07/23 12:13:12;;;;;;;8.37;7.73;;;31.00;87.20;;;;;;5021706;28;20455;-69
2022/07/23 12:15:41;;;;;;;9.13;8.33;;;31.50;85.60;;;;;;5025676;28;20457;-69
2022/07/23 12:18:09;;;;;;;9.50;8.50;;;31.80;83.70;;;;;;5020428;28;20422;-70
2022/07/23 12:20:48;;;;;;;9.13;8.33;;;32.30;82.50;;;;;;5021227;28;20428;-69
2022/07/23 12:23:16;;;;;;;9.70;9.00;;;32.60;79.60;;;;;;5022828;28;20526;-71
2022/07/23 12:25:43;;;;;;;8.90;8.20;;;32.80;79.50;;;;;;5023195;28;20402;-70
2022/07/23 12:28:10;;;;;;;9.27;8.57;;;33.20;77.90;;;;;;5022223;28;20390;-69
2022/07/23 12:30:41;;;;;;;9.80;9.00;;;33.20;75.60;;;;;;5021076;28;20397;-70
2022/07/23 12:33:08;;;;;;;9.77;8.73;;;33.20;75.10;;;;;;5019055;28;20451;-70
2022/07/23 12:35:37;;;;;;;8.87;8.17;;;32.80;75.30;;;;;;5024710;28;20431;-69
2022/07/23 12:38:09;;;;;;;8.50;7.70;;;32.70;75.50;;;;;;5025021;28;20423;-70
2022/07/23 12:40:41;;;;;;;8.70;8.00;;;32.60;74.20;;;;;;5023706;28;20522;-70
2022/07/23 12:43:09;;;;;;;8.57;7.60;;;32.60;74.00;;;;;;5022253;28;20465;-70
2022/07/23 12:45:45;;;;;;;10.13;8.30;;;32.70;74.10;;;;;;5017882;28;20427;-71